createdAt,value
2018-05-15T00:01:52.040Z,99648.14
2018-05-15T00:04:18.294Z,99650.37
2018-05-15T00:06:44.575Z,99648.92
2018-05-15T00:09:11.667Z,99636.72
2018-05-15T00:11:37.922Z,99644.66
2018-05-15T00:14:04.192Z,99641.88
2018-05-15T00:16:30.443Z,99636.41
2018-05-15T00:18:56.686Z,99641.45
2018-05-15T00:21:22.960Z,99642.95
2018-05-15T00:23:49.980Z,99640.42
2018-05-15T00:26:16.237Z,99642.81
2018-05-15T00:28:43.229Z,99639.11
2018-05-15T00:31:09.468Z,99636.34
2018-05-15T00:33:35.734Z,99640.65
2018-05-15T00:36:01.983Z,99644.16
2018-05-15T00:38:29.006Z,99639.74
2018-05-15T00:40:55.276Z,99640.58
2018-05-15T00:43:21.547Z,99639.67
2018-05-15T00:45:47.831Z,99640.88
2018-05-15T00:48:14.134Z,99649.27
2018-05-15T00:50:41.170Z,99642.70
2018-05-15T00:53:08.155Z,99643.94
2018-05-15T00:55:44.135Z,99650.75
2018-05-15T00:58:10.452Z,99647.12
2018-05-15T01:00:36.676Z,99643.94
2018-05-15T01:03:03.015Z,99643.03
2018-05-15T01:05:29.323Z,99632.30
2018-05-15T01:07:56.309Z,99625.44
2018-05-15T01:10:22.613Z,99626.48
2018-05-15T01:12:48.871Z,99630.68
2018-05-15T01:15:15.135Z,99633.62
2018-05-15T01:17:41.417Z,99635.48
2018-05-15T01:20:07.703Z,99630.80
2018-05-15T01:22:34.715Z,99631.27
2018-05-15T01:25:01.014Z,99625.09
2018-05-15T01:27:27.273Z,99634.16
2018-05-15T01:29:54.055Z,99632.81
2018-05-15T01:32:21.044Z,99629.03
2018-05-15T01:34:47.341Z,99624.86
2018-05-15T01:37:15.152Z,99632.58
2018-05-15T01:39:41.477Z,99626.53
2018-05-15T01:42:07.737Z,99625.41
2018-05-15T01:44:34.021Z,99625.33
2018-05-15T01:47:00.252Z,99634.23
2018-05-15T01:49:26.560Z,99625.52
2018-05-15T01:51:53.634Z,99627.10
2018-05-15T01:54:19.930Z,99626.97
2018-05-15T01:56:46.932Z,99622.38
2018-05-15T01:59:13.199Z,99622.67
2018-05-15T02:01:39.476Z,99627.56
2018-05-15T02:04:05.710Z,99617.83
2018-05-15T02:06:31.978Z,99619.91
2018-05-15T02:08:59.309Z,99620.09
2018-05-15T02:11:25.558Z,99614.45
2018-05-15T02:13:51.839Z,99622.56
2018-05-15T02:16:18.103Z,99628.53
2018-05-15T02:18:44.404Z,99633.30
2018-05-15T02:21:10.654Z,99630.77
2018-05-15T02:23:36.886Z,99627.33
2018-05-15T02:26:03.182Z,99622.95
2018-05-15T02:28:29.465Z,99620.41
2018-05-15T02:30:55.829Z,99616.62
2018-05-15T02:33:22.842Z,99619.09
2018-05-15T02:35:49.121Z,99614.17
2018-05-15T02:38:15.393Z,99624.78
2018-05-15T02:40:41.715Z,99620.97
2018-05-15T02:43:07.980Z,99613.18
2018-05-15T02:45:34.272Z,99616.34
2018-05-15T02:48:00.544Z,99619.28
2018-05-15T02:50:27.586Z,99617.30
2018-05-15T02:52:53.809Z,99621.31
2018-05-15T02:55:20.815Z,99620.50
2018-05-15T02:57:47.079Z,99612.02
2018-05-15T03:00:13.394Z,99616.77
2018-05-15T03:02:39.655Z,99607.95
2018-05-15T03:05:05.924Z,99612.16
2018-05-15T03:07:32.181Z,99616.58
2018-05-15T03:09:58.461Z,99612.44
2018-05-15T03:12:25.472Z,99620.17
2018-05-15T03:14:51.769Z,99625.89
2018-05-15T03:17:18.052Z,99614.94
2018-05-15T03:19:45.091Z,99626.59
2018-05-15T03:22:11.352Z,99624.12
2018-05-15T03:24:38.394Z,99629.87
2018-05-15T03:27:05.402Z,99633.83
2018-05-15T03:29:31.635Z,99631.69
2018-05-15T03:31:57.890Z,99637.59
2018-05-15T03:34:24.914Z,99636.63
2018-05-15T03:36:51.173Z,99631.84
2018-05-15T03:39:18.193Z,99633.19
2018-05-15T03:41:44.548Z,99636.58
2018-05-15T03:44:11.563Z,99631.47
2018-05-15T03:46:37.815Z,99626.77
2018-05-15T03:49:04.105Z,99634.33
2018-05-15T03:51:30.382Z,99638.04
2018-05-15T03:53:57.360Z,99634.51
2018-05-15T03:56:23.625Z,99642.11
2018-05-15T03:58:49.900Z,99638.41
2018-05-15T04:01:35.603Z,99649.67
2018-05-15T04:04:20.480Z,99647.30
2018-05-15T04:07:05.383Z,99649.87
2018-05-15T04:09:31.683Z,99650.63
2018-05-15T04:11:59.205Z,99658.18
2018-05-15T04:14:26.203Z,99653.68
2018-05-15T04:16:52.466Z,99660.19
2018-05-15T04:19:19.456Z,99656.05
2018-05-15T04:21:45.736Z,99655.70
2018-05-15T04:24:12.002Z,99653.54
2018-05-15T04:26:38.257Z,99653.07
2018-05-15T04:29:04.529Z,99655.12
2018-05-15T04:31:31.525Z,99655.61
2018-05-15T04:33:57.795Z,99662.27
2018-05-15T04:36:24.112Z,99659.98
2018-05-15T04:38:50.386Z,99663.98
2018-05-15T04:41:17.408Z,99664.27
2018-05-15T04:43:43.800Z,99663.84
2018-05-15T04:46:10.026Z,99665.98
2018-05-15T04:48:36.315Z,99660.02
2018-05-15T04:51:03.417Z,99660.33
2018-05-15T04:53:29.646Z,99664.23
2018-05-15T04:55:55.965Z,99667.94
2018-05-15T04:58:22.247Z,99665.16
2018-05-15T05:00:49.279Z,99661.45
2018-05-15T05:03:15.550Z,99663.91
2018-05-15T05:05:42.606Z,99663.46
2018-05-15T05:08:08.895Z,99657.07
2018-05-15T05:10:35.229Z,99660.00
2018-05-15T05:13:02.211Z,99665.53
2018-05-15T05:15:28.475Z,99667.14
2018-05-15T05:17:54.754Z,99662.98
2018-05-15T05:20:21.756Z,99665.35
2018-05-15T05:22:48.029Z,99675.31
2018-05-15T05:25:15.014Z,99671.67
2018-05-15T05:27:41.292Z,99673.30
2018-05-15T05:30:08.248Z,99673.97
2018-05-15T05:32:35.257Z,99663.39
2018-05-15T05:35:01.560Z,99653.80
2018-05-15T05:37:27.923Z,99653.46
2018-05-15T05:39:54.182Z,99661.95
2018-05-15T05:42:20.447Z,99666.37
2018-05-15T05:44:46.722Z,99672.39
2018-05-15T05:47:13.040Z,99663.12
2018-05-15T05:49:39.293Z,99660.30
2018-05-15T05:52:05.627Z,99663.45
2018-05-15T05:54:31.880Z,99659.25
2018-05-15T05:56:58.910Z,99660.73
2018-05-15T05:59:25.194Z,99654.42
2018-05-15T06:01:51.490Z,99654.12
2018-05-15T06:04:18.487Z,99658.41
2018-05-15T06:06:44.795Z,99655.02
2018-05-15T06:09:11.053Z,99650.60
2018-05-15T06:11:37.341Z,99654.05
2018-05-15T06:14:03.619Z,99649.77
2018-05-15T06:16:29.916Z,99654.27
2018-05-15T06:18:56.182Z,99657.37
2018-05-15T06:21:22.475Z,99659.91
2018-05-15T06:23:48.735Z,99657.15
2018-05-15T06:26:15.013Z,99652.59
2018-05-15T06:28:41.274Z,99654.90
2018-05-15T06:31:07.579Z,99651.88
2018-05-15T06:33:33.851Z,99652.63
2018-05-15T06:36:00.131Z,99644.59
2018-05-15T06:38:26.469Z,99642.27
2018-05-15T06:40:53.478Z,99642.24
2018-05-15T06:43:21.241Z,99639.53
2018-05-15T06:45:48.956Z,99641.52
2018-05-15T06:48:15.250Z,99633.95
2018-05-15T06:50:42.248Z,99644.10
2018-05-15T06:53:08.487Z,99642.61
2018-05-15T06:55:34.751Z,99635.09
2018-05-15T06:58:01.019Z,99632.90
2018-05-15T07:00:27.266Z,99638.29
2018-05-15T07:02:53.568Z,99634.13
2018-05-15T07:05:19.856Z,99640.02
2018-05-15T07:07:46.202Z,99641.50
2018-05-15T07:10:12.675Z,99642.55
2018-05-15T07:12:38.955Z,99642.22
2018-05-15T07:15:05.214Z,99636.74
2018-05-15T07:17:32.258Z,99640.67
2018-05-15T07:19:59.268Z,99634.32
2018-05-15T07:22:25.620Z,99629.64
2018-05-15T07:24:51.929Z,99632.58
2018-05-15T07:27:18.309Z,99634.06
2018-05-15T07:29:44.521Z,99638.03
2018-05-15T07:32:10.936Z,99629.63
2018-05-15T07:34:37.243Z,99638.83
2018-05-15T07:37:03.675Z,99644.52
2018-05-15T07:39:30.049Z,99634.84
2018-05-15T07:41:57.074Z,99629.28
2018-05-15T07:44:23.340Z,99630.07
2018-05-15T07:46:50.343Z,99629.75
2018-05-15T07:49:16.608Z,99628.59
2018-05-15T07:51:43.609Z,99622.81
2018-05-15T07:54:09.868Z,99633.82
2018-05-15T07:56:36.880Z,99634.64
2018-05-15T07:59:03.170Z,99629.33
2018-05-15T08:01:30.155Z,99622.62
2018-05-15T08:03:56.458Z,99621.58
2018-05-15T08:06:22.748Z,99619.19
2018-05-15T08:08:50.559Z,99619.91
2018-05-15T08:11:16.833Z,99624.16
2018-05-15T08:13:43.097Z,99620.72
2018-05-15T08:16:10.127Z,99623.14
2018-05-15T08:18:37.881Z,99621.73
2018-05-15T08:21:04.151Z,99622.33
2018-05-15T08:23:31.156Z,99623.84
2018-05-15T08:25:57.431Z,99613.38
2018-05-15T08:28:23.734Z,99611.84
2018-05-15T08:30:50.108Z,99621.00
2018-05-15T08:33:16.333Z,99622.27
2018-05-15T08:35:42.602Z,99611.02
2018-05-15T08:38:08.866Z,99613.55
2018-05-15T08:40:35.908Z,99616.27
2018-05-15T08:43:03.004Z,99617.10
2018-05-15T08:45:29.466Z,99616.91
2018-05-15T08:47:55.586Z,99623.99
2018-05-15T08:50:21.869Z,99622.16
2018-05-15T08:52:48.160Z,99622.69
2018-05-15T08:55:15.922Z,99617.45
2018-05-15T08:57:42.235Z,99614.01
2018-05-15T09:00:08.540Z,99611.35
2018-05-15T09:02:34.902Z,99611.08
2018-05-15T09:05:01.189Z,99615.05
2018-05-15T09:07:28.271Z,99613.20
2018-05-15T09:09:54.604Z,99613.20
2018-05-15T09:12:20.884Z,99608.78
2018-05-15T09:14:48.063Z,99612.37
2018-05-15T09:17:14.382Z,99618.07
2018-05-15T09:19:40.674Z,99616.58
2018-05-15T09:22:07.113Z,99614.19
2018-05-15T09:24:33.407Z,99618.33
2018-05-15T09:26:59.677Z,99614.42
2018-05-15T09:29:26.105Z,99612.19
2018-05-15T09:31:52.319Z,99612.55
2018-05-15T09:34:18.646Z,99622.32
2018-05-15T09:36:44.970Z,99607.84
2018-05-15T09:39:11.259Z,99611.04
2018-05-15T09:41:37.553Z,99612.73
2018-05-15T09:44:04.102Z,99615.52
2018-05-15T09:46:30.366Z,99610.67
2018-05-15T09:48:56.679Z,99611.19
2018-05-15T09:51:23.098Z,99612.94
2018-05-15T09:53:50.504Z,99604.69
2018-05-15T09:56:16.928Z,99599.77
2018-05-15T09:58:43.249Z,99601.70
2018-05-15T10:01:09.500Z,99604.18
2018-05-15T10:03:35.799Z,99600.41
2018-05-15T10:06:02.092Z,99597.54
2018-05-15T10:08:28.365Z,99599.39
2018-05-15T10:10:54.653Z,99600.08
2018-05-15T10:13:27.905Z,99589.48
2018-05-15T10:15:54.215Z,99592.55
2018-05-15T10:18:20.621Z,99596.35
2018-05-15T10:20:46.942Z,99593.28
2018-05-15T10:23:13.284Z,99592.57
2018-05-15T10:25:39.766Z,99589.28
2018-05-15T10:28:06.165Z,99587.42
2018-05-15T10:30:33.233Z,99585.56
2018-05-15T10:32:59.654Z,99585.75
2018-05-15T10:35:25.997Z,99584.81
2018-05-15T10:37:52.276Z,99586.33
2018-05-15T10:40:18.611Z,99578.55
2018-05-15T10:42:44.935Z,99582.08
2018-05-15T10:45:11.305Z,99585.69
2018-05-15T10:47:38.421Z,99582.48
2018-05-15T10:50:04.767Z,99590.50
2018-05-15T10:52:31.073Z,99587.16
2018-05-15T10:54:57.375Z,99595.19
2018-05-15T10:57:23.751Z,99592.72
2018-05-15T10:59:50.202Z,99608.13
2018-05-15T11:02:16.554Z,99620.94
2018-05-15T11:04:43.734Z,99627.45
2018-05-15T11:07:10.053Z,99633.92
2018-05-15T11:09:36.395Z,99619.54
2018-05-15T11:12:02.985Z,99607.84
2018-05-15T11:14:29.995Z,99595.58
2018-05-15T11:16:56.260Z,99586.66
2018-05-15T11:19:42.337Z,99587.63
2018-05-15T11:22:27.399Z,99585.39
2018-05-15T11:24:53.665Z,99584.31
2018-05-15T11:27:20.774Z,99578.75
2018-05-15T11:29:47.089Z,99573.35
2018-05-15T11:32:13.380Z,99575.56
2018-05-15T11:34:40.551Z,99572.17
2018-05-15T11:37:06.836Z,99564.19
2018-05-15T11:39:33.249Z,99565.75
2018-05-15T11:41:59.636Z,99566.12
2018-05-15T11:44:25.913Z,99570.31
2018-05-15T11:46:52.390Z,99565.47
2018-05-15T11:49:20.028Z,99562.88
2018-05-15T11:51:47.085Z,99563.21
2018-05-15T11:54:12.288Z,99564.14
2018-05-15T11:56:38.614Z,99560.72
2018-05-15T11:59:04.920Z,99560.25
2018-05-15T12:01:31.217Z,99568.28
2018-05-15T12:03:57.572Z,99565.22
2018-05-15T12:06:23.851Z,99572.89
2018-05-15T12:08:50.875Z,99570.63
2018-05-15T12:11:17.203Z,99558.63
2018-05-15T12:13:43.474Z,99554.83
2018-05-15T12:16:10.579Z,99556.29
2018-05-15T12:18:36.821Z,99548.88
2018-05-15T12:21:03.146Z,99544.34
2018-05-15T12:23:29.370Z,99532.69
2018-05-15T12:25:55.694Z,99522.52
2018-05-15T12:28:21.944Z,99520.59
2018-05-15T12:30:48.979Z,99521.13
2018-05-15T12:33:15.290Z,99517.45
2018-05-15T12:35:41.594Z,99521.00
2018-05-15T12:38:07.894Z,99531.61
2018-05-15T12:40:34.960Z,99519.23
2018-05-15T12:43:01.962Z,99520.58
2018-05-15T12:45:28.240Z,99522.41
2018-05-15T12:47:55.316Z,99523.06
2018-05-15T12:50:22.291Z,99522.36
2018-05-15T12:52:48.566Z,99517.20
2018-05-15T12:55:15.602Z,99522.25
2018-05-15T12:57:42.598Z,99521.55
2018-05-15T13:00:08.846Z,99514.63
2018-05-15T13:02:35.170Z,99506.17
2018-05-15T13:05:01.463Z,99504.34
2018-05-15T13:07:27.777Z,99508.34
2018-05-15T13:09:54.777Z,99497.50
2018-05-15T13:12:21.296Z,99499.84
2018-05-15T13:14:47.580Z,99500.57
2018-05-15T13:17:14.598Z,99500.02
2018-05-15T13:19:40.846Z,99499.27
2018-05-15T13:22:07.130Z,99499.72
2018-05-15T13:24:33.500Z,99499.39
2018-05-15T13:27:01.175Z,99495.80
2018-05-15T13:29:28.195Z,99491.11
2018-05-15T13:31:54.498Z,99480.78
2018-05-15T13:34:20.780Z,99484.34
2018-05-15T13:36:47.795Z,99478.81
2018-05-15T13:39:14.095Z,99479.02
2018-05-15T13:41:40.351Z,99476.33
2018-05-15T13:44:06.643Z,99474.83
2018-05-15T13:46:32.911Z,99471.69
2018-05-15T13:48:59.202Z,99470.61
2018-05-15T13:51:26.190Z,99467.91
2018-05-15T13:53:52.433Z,99465.03
2018-05-15T13:56:18.739Z,99465.67
2018-05-15T13:58:45.027Z,99463.86
2018-05-15T14:01:12.047Z,99459.64
2018-05-15T14:03:38.287Z,99457.21
2018-05-15T14:06:04.577Z,99460.93
2018-05-15T14:08:30.831Z,99457.56
2018-05-15T14:10:57.127Z,99459.06
2018-05-15T14:13:23.425Z,99452.63
2018-05-15T14:15:50.461Z,99441.61
2018-05-15T14:18:17.471Z,99447.10
2018-05-15T14:20:43.733Z,99446.02
2018-05-15T14:23:10.019Z,99449.16
2018-05-15T14:25:36.326Z,99442.16
2018-05-15T14:28:02.607Z,99439.91
2018-05-15T14:30:28.870Z,99445.23
2018-05-15T14:32:55.910Z,99444.58
2018-05-15T14:35:22.948Z,99442.81
2018-05-15T14:37:49.243Z,99439.63
2018-05-15T14:40:15.508Z,99434.42
2018-05-15T14:43:00.463Z,99429.14
2018-05-15T14:45:26.743Z,99424.53
2018-05-15T14:47:53.063Z,99428.64
2018-05-15T14:50:20.123Z,99425.42
2018-05-15T14:52:46.430Z,99423.78
2018-05-15T14:55:13.454Z,99422.83
2018-05-15T14:57:39.735Z,99408.14
2018-05-15T15:00:05.973Z,99409.27
2018-05-15T15:02:32.283Z,99410.69
2018-05-15T15:04:58.609Z,99411.16
2018-05-15T15:07:25.606Z,99408.22
2018-05-15T15:09:51.899Z,99409.99
2018-05-15T15:12:18.159Z,99417.31
2018-05-15T15:14:44.435Z,99420.50
2018-05-15T15:17:11.469Z,99413.48
2018-05-15T15:19:37.830Z,99422.85
2018-05-15T15:22:04.978Z,99418.56
2018-05-15T15:24:32.025Z,99415.86
2018-05-15T15:26:59.072Z,99411.45
2018-05-15T15:29:26.203Z,99409.66
2018-05-15T15:32:05.970Z,99403.62
2018-05-15T15:34:32.989Z,99406.13
2018-05-15T15:36:59.428Z,99410.81
2018-05-15T15:39:25.855Z,99417.01
2018-05-15T15:41:52.182Z,99410.73
2018-05-15T15:44:18.562Z,99408.95
2018-05-15T15:46:45.004Z,99415.96
2018-05-15T15:49:11.490Z,99412.45
2018-05-15T15:51:37.821Z,99417.66
2018-05-15T15:54:04.130Z,99410.12
2018-05-15T15:56:30.525Z,99395.52
2018-05-15T15:58:56.913Z,99392.55
2018-05-15T16:01:23.245Z,99400.91
2018-05-15T16:03:49.574Z,99403.05
2018-05-15T16:06:15.939Z,99406.42
2018-05-15T16:08:42.338Z,99393.87
2018-05-15T16:11:08.687Z,99399.39
2018-05-15T16:13:35.814Z,99396.97
2018-05-15T16:16:02.227Z,99391.08
2018-05-15T16:18:28.627Z,99388.66
2018-05-15T16:20:54.987Z,99390.30
2018-05-15T16:23:21.343Z,99380.31
2018-05-15T16:25:47.704Z,99376.99
2018-05-15T16:28:14.821Z,99374.64
2018-05-15T16:30:41.164Z,99374.05
2018-05-15T16:33:07.520Z,99376.59
2018-05-15T16:35:34.592Z,99375.72
2018-05-15T16:38:00.940Z,99368.25
2018-05-15T16:40:27.295Z,99378.19
2018-05-15T16:42:53.701Z,99382.16
2018-05-15T16:45:20.063Z,99381.14
2018-05-15T16:47:46.418Z,99388.88
2018-05-15T16:50:12.761Z,99387.63
2018-05-15T16:52:39.967Z,99381.93
2018-05-15T16:55:07.045Z,99370.59
2018-05-15T16:57:33.438Z,99362.13
2018-05-15T16:59:59.823Z,99366.27
2018-05-15T17:02:26.165Z,99372.53
2018-05-15T17:04:53.246Z,99366.77
2018-05-15T17:07:19.560Z,99364.45
2018-05-15T17:09:45.889Z,99364.38
2018-05-15T17:12:12.178Z,99368.01
2018-05-15T17:14:38.543Z,99358.40
2018-05-15T17:17:05.997Z,99351.59
2018-05-15T17:19:32.371Z,99350.43
2018-05-15T17:21:58.688Z,99348.33
2018-05-15T17:24:25.098Z,99350.84
2018-05-15T17:26:52.472Z,99346.70
2018-05-15T17:29:18.830Z,99341.49
2018-05-15T17:31:45.185Z,99345.19
2018-05-15T17:34:11.589Z,99342.98
2018-05-15T17:36:38.340Z,99339.66
2018-05-15T17:39:05.480Z,99347.80
2018-05-15T17:41:31.825Z,99340.56
2018-05-15T17:43:58.106Z,99351.28
2018-05-15T17:46:24.563Z,99346.92
2018-05-15T17:48:50.909Z,99348.56
2018-05-15T17:51:17.231Z,99349.20
2018-05-15T17:53:43.600Z,99353.23
2018-05-15T17:56:10.014Z,99348.03
2018-05-15T17:58:36.345Z,99348.92
2018-05-15T18:01:02.710Z,99353.23
2018-05-15T18:03:29.802Z,99349.69
2018-05-15T18:05:56.137Z,99345.13
2018-05-15T18:08:22.490Z,99344.68
2018-05-15T18:10:49.493Z,99341.44
2018-05-15T18:13:15.831Z,99352.61
2018-05-15T18:15:42.243Z,99343.28
2018-05-15T18:18:09.276Z,99351.24
2018-05-15T18:20:35.636Z,99352.80
2018-05-15T18:23:01.970Z,99361.06
2018-05-15T18:25:28.332Z,99349.28
2018-05-15T18:27:54.763Z,99348.28
2018-05-15T18:30:21.195Z,99354.04
2018-05-15T18:32:47.523Z,99363.20
2018-05-15T18:35:13.965Z,99364.91
2018-05-15T18:37:41.245Z,99364.24
2018-05-15T18:40:07.781Z,99358.36
2018-05-15T18:42:34.329Z,99374.23
2018-05-15T18:45:01.626Z,99370.09
2018-05-15T18:47:28.052Z,99379.20
2018-05-15T18:49:54.520Z,99373.94
2018-05-15T18:52:20.893Z,99379.41
2018-05-15T18:54:48.120Z,99380.66
2018-05-15T18:57:14.575Z,99384.76
2018-05-15T18:59:40.981Z,99391.67
2018-05-15T19:02:07.382Z,99394.33
2018-05-15T19:04:33.786Z,99400.72
2018-05-15T19:07:00.974Z,99396.24
2018-05-15T19:09:27.349Z,99393.71
2018-05-15T19:11:54.462Z,99386.33
2018-05-15T19:14:20.814Z,99387.48
2018-05-15T19:16:47.194Z,99384.34
2018-05-15T19:19:13.776Z,99385.91
2018-05-15T19:21:40.233Z,99395.77
2018-05-15T19:24:06.703Z,99396.75
2018-05-15T19:26:33.130Z,99393.56
2018-05-15T19:28:59.540Z,99396.38
2018-05-15T19:31:32.136Z,99394.41
2018-05-15T19:33:58.473Z,99397.48
2018-05-15T19:36:30.201Z,99402.76
2018-05-15T19:39:03.329Z,99398.69
2018-05-15T19:41:29.670Z,99399.77
2018-05-15T19:43:56.042Z,99401.04
2018-05-15T19:46:22.448Z,99399.32
2018-05-15T19:48:48.800Z,99396.36
2018-05-15T19:51:15.206Z,99402.17
2018-05-15T19:53:42.559Z,99401.75
2018-05-15T19:56:08.900Z,99406.13
2018-05-15T19:58:35.223Z,99406.31
2018-05-15T20:01:01.536Z,99398.22
2018-05-15T20:03:27.863Z,99393.17
2018-05-15T20:05:54.283Z,99390.50
2018-05-15T20:08:20.721Z,99393.40
2018-05-15T20:10:47.819Z,99392.59
2018-05-15T20:13:14.192Z,99392.92
2018-05-15T20:15:41.347Z,99395.03
2018-05-15T20:18:08.409Z,99390.98
2018-05-15T20:20:34.854Z,99384.89
2018-05-15T20:23:01.217Z,99385.05
2018-05-15T20:25:27.533Z,99385.03
2018-05-15T20:27:53.834Z,99383.87
2018-05-15T20:30:20.253Z,99387.29
2018-05-15T20:32:47.308Z,99383.63
2018-05-15T20:35:13.646Z,99384.72
2018-05-15T20:37:41.084Z,99390.09
2018-05-15T20:40:07.486Z,99388.50
2018-05-15T20:42:33.868Z,99393.08
2018-05-15T20:45:00.999Z,99392.40
2018-05-15T20:47:27.329Z,99395.94
2018-05-15T20:49:53.688Z,99394.44
2018-05-15T20:52:20.079Z,99395.12
2018-05-15T20:54:46.463Z,99397.70
2018-05-15T20:57:12.910Z,99403.66
2018-05-15T20:59:39.216Z,99401.44
2018-05-15T21:02:05.551Z,99401.16
2018-05-15T21:04:31.901Z,99408.16
2018-05-15T21:06:58.411Z,99407.17
2018-05-15T21:09:25.161Z,99412.60
2018-05-15T21:11:51.509Z,99412.02
2018-05-15T21:14:17.858Z,99407.28
2018-05-15T21:16:44.229Z,99409.91
2018-05-15T21:19:11.661Z,99403.72
2018-05-15T21:21:37.988Z,99407.73
2018-05-15T21:24:04.687Z,99398.84
2018-05-15T21:26:31.166Z,99395.70
2018-05-15T21:28:57.496Z,99392.64
2018-05-15T21:31:24.054Z,99394.73
2018-05-15T21:33:50.414Z,99402.73
2018-05-15T21:36:16.818Z,99402.12
2018-05-15T21:38:43.180Z,99400.52
2018-05-15T21:41:09.954Z,99408.41
2018-05-15T21:43:36.478Z,99411.02
2018-05-15T21:46:02.837Z,99413.32
2018-05-15T21:48:30.068Z,99414.92
2018-05-15T21:50:56.389Z,99419.22
2018-05-15T21:53:22.884Z,99426.38
2018-05-15T21:55:49.186Z,99424.55
2018-05-15T21:58:15.594Z,99420.52
2018-05-15T22:00:41.896Z,99423.23
2018-05-15T22:03:08.965Z,99416.89
2018-05-15T22:05:35.343Z,99424.48
2018-05-15T22:08:01.889Z,99423.28
2018-05-15T22:10:28.176Z,99422.40
2018-05-15T22:13:13.319Z,99416.63
2018-05-15T22:15:58.315Z,99422.17
2018-05-15T22:18:43.194Z,99416.26
2018-05-15T22:21:28.111Z,99420.45
2018-05-15T22:23:55.017Z,99412.52
2018-05-15T22:26:22.427Z,99419.41
2018-05-15T22:28:48.930Z,99426.25
2018-05-15T22:31:15.241Z,99429.75
2018-05-15T22:33:41.952Z,99428.45
2018-05-15T22:36:08.314Z,99419.95
2018-05-15T22:38:34.691Z,99427.02
2018-05-15T22:41:01.107Z,99421.13
2018-05-15T22:43:28.330Z,99427.33
2018-05-15T22:45:54.718Z,99427.89
2018-05-15T22:48:21.206Z,99435.13
2018-05-15T22:50:47.742Z,99431.17
2018-05-15T22:53:14.044Z,99438.16
2018-05-15T22:55:40.597Z,99435.44
2018-05-15T22:58:06.899Z,99439.63
2018-05-15T23:00:33.297Z,99435.50
2018-05-15T23:03:00.357Z,99432.78
2018-05-15T23:05:26.662Z,99430.83
2018-05-15T23:07:52.978Z,99428.69
2018-05-15T23:10:19.547Z,99427.36
2018-05-15T23:12:46.052Z,99423.58
2018-05-15T23:15:12.393Z,99425.81
2018-05-15T23:17:38.719Z,99420.79
2018-05-15T23:20:05.400Z,99421.17
2018-05-15T23:22:41.943Z,99428.09
2018-05-15T23:25:09.024Z,99423.50
2018-05-15T23:27:35.332Z,99424.55
2018-05-15T23:30:02.609Z,99423.72
2018-05-15T23:32:28.961Z,99419.64
2018-05-15T23:34:55.293Z,99416.77
2018-05-15T23:37:21.694Z,99416.84
2018-05-15T23:39:48.025Z,99423.66
2018-05-15T23:42:14.395Z,99422.39
2018-05-15T23:44:40.785Z,99421.02
2018-05-15T23:47:07.161Z,99419.91
2018-05-15T23:49:33.507Z,99420.62
2018-05-15T23:51:59.971Z,99414.84
2018-05-15T23:54:27.012Z,99412.48
2018-05-15T23:56:53.519Z,99409.55
2018-05-15T23:59:19.916Z,99408.64
